To NAV CANADA Home Page Login to a new session Search on AWWS site Feedback and Comments Disclaimer Vers la page française équivalente Tips FAQ What's new on the site To the Forecasts and Observations / NOTAM section To "File a Flight Plan" website Publications and other links Update of the User's profile FIC Telephone Numbers My Weather Data Folder Route Weather Data Regional Weather Data Local Weather Data To the Forecasts and Observations / NOTAM section
Request Generated 01/21/2017 at 02:02:52 UTC . Weather information available at that time is displayed.

METAR/TAF

NATASHQUAN/QC    (show WxCam)

SPECI CYNA 210155Z AUTO 28002KT 9SM OVC007 M03/M04 A2990 RMK SLP127=
SPECI CYNA 210148Z AUTO 28004KT 9SM OVC009 M03/M04 A2990 RMK SLP128=
SPECI CYNA 210133Z AUTO 28005KT 6SM -SN OVC009 M03/M03 A2991 RMK
SLP130=
SPECI CYNA 210129Z AUTO 29004KT 3SM -SN OVC009 M03/M03 A2991 RMK
SLP130=
SPECI CYNA 210118Z AUTO 28004KT 2 1/2SM -SN OVC011 M03/M03 A2991 RMK
SLP129=
METAR CYNA 210100Z AUTO 31002KT 4SM -SN OVC013 M03/M03 A2991 RMK
SLP130=
SPECI CYNA 210047Z AUTO 31004KT 3SM -SN BKN013 OVC020 M03/M03 A2991
RMK SLP132=
SPECI CYNA 210043Z AUTO 30004KT 2 1/4SM -SN BKN013 OVC020 M03/M03
A2992 RMK SLP133=
SPECI CYNA 210014Z AUTO 29005KT 1 1/4SM -SN SCT006 OVC013 M03/M03
A2993 RMK SLP136=
SPECI CYNA 210013Z AUTO 29005KT 1 1/4SM -SN SCT006 BKN009 OVC013
M03/M03 A2993 RMK SLP137=
SPECI CYNA 210010Z AUTO 28005KT 1 1/2SM -SN SCT006 OVC011 M03/M03
A2993 RMK SLP137=
SPECI CYNA 210008Z AUTO 28005KT 1 1/2SM -SN BKN006 OVC011 M03/M03
A2993 RMK SLP137=
SPECI CYNA 210005Z AUTO 28006KT 1 1/2SM -SN OVC008 M03/M03 A2993 RMK
SLP136=
METAR CYNA 210000Z AUTO 28004KT 1 1/2SM -SN OVC006 M03/M03 A2993 RMK
SLP137=
SPECI CYNA 202345Z AUTO VRB02KT 2SM -SN OVC004 M02/M02 A2993 RMK
SLP137=
SPECI CYNA 202343Z AUTO 26003KT 190V360 2 1/2SM -SN OVC004 M02/M02
A2993 RMK SLP137=
SPECI CYNA 202338Z AUTO 00000KT 5SM -SN OVC004 M02/M02 A2993 RMK
SLP138=
SPECI CYNA 202325Z AUTO 21003KT 090V250 7SM -SN OVC004 M02/M02 A2993
RMK SLP139=
SPECI CYNA 202323Z AUTO VRB02KT 6SM -SN OVC006 M03/M03 A2993 RMK
SLP139=
SPECI CYNA 202315Z AUTO 10002KT 3SM -SN OVC006 M03/M03 A2993 RMK
SLP139=
SPECI CYNA 202312Z AUTO 10002KT 2 1/4SM -SN OVC006 M02/M02 A2994 RMK
SLP140=
SPECI CYNA 202309Z AUTO 09002KT 2SM -SN BKN006 OVC014 M02/M02 A2994
RMK VIS VRB 1 1/2-3 SLP140=
SPECI CYNA 202304Z AUTO 09003KT 2 1/2SM -SN BKN006 BKN009 OVC014
M02/M02 A2994 RMK SLP140=
SPECI CYNA 202301Z AUTO 09003KT 4SM -SN BKN006 OVC014 M02/M02 A2994
RMK SLP140=
METAR CYNA 202300Z AUTO 09003KT 5SM -SN BKN004 OVC014 M02/M02 A2994
RMK SLP140=

TAF CYNA 210138Z 2102/2114 VRB03KT 6SM BR SCT004 OVC010 TEMPO
2102/2114 11/2SM -SN BR OVC004 PROB30 2102/2114 11/2SM -FZDZ BR
RMK FCST BASED ON AUTO OBS. NXT FCST BY 210800Z=
Your time UTC time
Weather data provided by Environment Canada and NAV CANADA